• Join FlightAware (Why Join?)
  • Login
  • US Flag 
10:05AM EDT


 

Airport Tracker/Info


-or-


 

Live Flight TrackerFlight Track Log ✈ N1983V ✈ 27-Apr-2013 ✈ KCON - 47N

Flight Track Log - Related Links

Times and Time Zones

All times are in EDT time to prevent confusion due to time zone crossing. See the N1983V flight status page for this flight to view local times or setup timezone preferences in your user account.

Time Position Orientation Groundspeed Altitude Reporting Facility
EDT Latitude Longitude Course Direction KTS MPH feet Rate Location/Type
07:21AM 42.7589 -72.3325 222° Southwest 110 127 4,500  Level Boston Center
07:22AM 42.7381 -72.3639 228° Southwest 110 127 4,600  Climbing Boston Center
07:23AM 42.7214 -72.3950 234° Southwest 110 127 4,600  Level Boston Center
07:24AM 42.7025 -72.4203 225° Southwest 110 127 4,600 -60 Level Boston Center
07:25AM 42.6817 -72.4514 228° Southwest 110 127 4,500  Descending Boston Center
07:26AM 42.6608 -72.4739 218° Southwest 110 127 4,600  Climbing Boston Center
07:27AM 42.0676 -72.8581 222° Southwest  Level Estimated
07:27AM 42.6422 -72.4936 218° Southwest 110 127 4,500  Level Boston Center
07:28AM 42.6192 -72.5247 225° Southwest 110 127 4,500  Level Boston Center
07:29AM 42.6025 -72.5389 212° Southwest 102 117 4,500  Level Boston Center
07:29AM 42.6006 -72.5500 257° West 105 121 4,500  Level Boston Center
07:30AM 42.5817 -72.5783 228° Southwest 105 121 4,500  Level Boston Center
07:31AM 42.5608 -72.6036 222° Southwest 100 115 4,600  Climbing Boston Center
07:32AM 42.5378 -72.6261 216° Southwest 100 115 4,600  Level Boston Center
07:33AM 42.5169 -72.6542 225° Southwest 105 121 4,600 -60 Level Boston Center
07:34AM 42.5003 -72.6822 231° Southwest 105 121 4,500  Descending Boston Center
07:35AM 42.4772 -72.7103 222° Southwest 105 121 4,600  Climbing Boston Center
07:36AM 42.4542 -72.7328 216° Southwest 105 121 4,600 -60 Level Boston Center
07:37AM 42.4375 -72.7636 234° Southwest 105 121 4,500 -60 Descending Boston Center
07:38AM 42.4208 -72.7944 234° Southwest 105 121 4,500  Level Boston Center
07:39AM 42.4164 -72.8114 250° West 103 119 4,500  Level Boston Center
07:39AM 42.4061 -72.8281 230° Southwest 105 121 4,500  Level Boston Center
07:40AM 42.3997 -72.8422 239° Southwest 103 119 4,500  Level Boston Center
07:40AM 42.3872 -72.8561 219° Southwest 105 121 4,500  Level Boston Center
07:41AM 42.3786 -72.8700 230° Southwest 103 119 4,500  Level Boston Center
07:41AM 42.3642 -72.8811 210° Southwest 105 121 4,500  Level Boston Center
07:41AM 42.3578 -72.8925 233° Southwest 104 120 4,500  Level Boston Center
07:42AM 42.3411 -72.9036 206° Southwest 110 127 4,500 60 Level Boston Center
07:42AM 42.3328 -72.9092 206° Southwest 100 115 4,600 60 Climbing Boston Center
07:43AM 42.3181 -72.9231 215° Southwest 103 119 4,600  Level Boston Center
07:43AM 42.3117 -72.9314 224° Southwest 98 113 4,600  Level Boston Center
07:44AM 42.2950 -72.9594 231° Southwest 101 116 4,600  Level Boston Center
07:45AM 42.2761 -72.9872 227° Southwest 100 115 4,700  Climbing Boston Center
07:46AM 42.2550 -73.0178 227° Southwest 110 127 4,600 -60 Descending Boston Center
07:47AM 42.2319 -73.0486 225° Southwest 111 128 4,600 -60 Level Boston Center
07:48AM 42.2089 -73.0792 224° Southwest 111 128 4,500 -60 Descending Boston Center
07:49AM 42.1817 -73.1014 211° Southwest 113 130 4,500  Level Boston Center
07:50AM 42.1608 -73.1319 227° Southwest 113 130 4,600  Climbing Boston Center
07:51AM 42.1417 -73.1625 230° Southwest 105 121 4,600  Level Boston Center
07:52AM 42.1208 -73.1903 225° Southwest 106 122 4,600  Level Boston Center
07:53AM 42.0997 -73.2181 224° Southwest 109 125 4,600  Level Boston Center
07:54AM 42.0744 -73.2539 226° Southwest 118 136 4,600 -60 Level Boston Center
07:55AM 42.0533 -73.2844 227° Southwest 118 136 4,500  Descending Boston Center
07:56AM 42.0344 -73.3233 237° Southwest 115 132 4,600  Climbing Boston Center
07:58AM 42.0175 -73.3567 236° Southwest 114 131 4,600 -60 Level Boston Center
07:59AM 41.9893 -73.3551 178° South  Level FlightAware Approximate
08:02AM 41.9333 -73.4667 204° Southwest 112 129 4,500  Level New York TRACON
08:03AM 41.9000 -73.5000 217° Southwest 109 125 4,500  Level New York TRACON
08:04AM 41.8833 -73.5333 236° Southwest 109 125 4,500  Level New York TRACON
08:04AM 41.8667 -73.5667 236° Southwest 112 129 4,500  Level New York TRACON
08:05AM 41.8500 -73.5833 217° Southwest 112 129 4,500  Level New York TRACON
08:06AM 41.8238 -73.4990 214° Southwest  Level Estimated
08:06AM 41.8167 -73.6167 217° Southwest 113 130 4,500  Level New York TRACON
08:07AM 41.7980 -73.5142 204° Southwest  Level FlightAware Approximate
08:07AM 41.8000 -73.6333 217° Southwest 110 127 4,500  Level New York TRACON
08:08AM 41.7833 -73.6667 236° Southwest 106 122 4,500  Level New York TRACON
08:09AM 41.7500 -73.6833 200° South 110 127 4,500  Level New York TRACON
08:10AM 41.7333 -73.7167 236° Southwest 110 127 4,500  Level New York TRACON
08:11AM 41.7167 -73.7500 236° Southwest 109 125 4,600  Climbing New York TRACON
08:12AM 41.6833 -73.7667 200° South 113 130 4,500  Descending New York TRACON
08:13AM 41.6667 -73.8000 236° Southwest 109 125 4,600  Climbing New York TRACON
08:14AM 41.6333 -73.8167 200° South 114 131 4,600 -60 Level New York TRACON
08:15AM 41.6167 -73.8500 236° Southwest 112 129 4,500 -60 Descending New York TRACON
08:16AM 41.5833 -73.8833 217° Southwest 113 130 4,500 -60 Level New York TRACON
08:17AM 41.5667 -73.9000 217° Southwest 117 135 4,400  Descending New York TRACON
08:18AM 41.5333 -73.9167 201° Southwest 116 133 4,500 60 Climbing New York TRACON
08:19AM 41.5000 -73.9333 201° Southwest 116 133 4,600  Climbing New York TRACON
08:20AM 41.4833 -73.9500 217° Southwest 115 132 4,600 -60 Level New York TRACON
08:21AM 41.4500 -73.9833 217° Southwest 121 139 4,500 -60 Descending New York TRACON
08:22AM 41.4333 -74.0000 217° Southwest 114 131 4,500  Level New York TRACON
08:23AM 41.4000 -74.0333 217° Southwest 113 130 4,500  Level New York TRACON
08:24AM 41.3833 -74.0500 217° Southwest 113 130 4,500  Level New York TRACON
08:25AM 41.3500 -74.0667 201° Southwest 116 133 4,600 -120 Climbing New York TRACON
08:30AM 41.3180 -74.0875 210° Southwest  Level Estimated
08:37AM 41.1380 -74.1931 204° Southwest  Level FlightAware Approximate
08:38AM 41.1123 -74.2082 204° Southwest  Level FlightAware Approximate
08:39AM 41.0866 -74.2232 204° Southwest  Level FlightAware Approximate
08:39AM 40.9667 -74.3167 204° Southwest 111 128 3,500  Level New York TRACON
08:40AM 41.0609 -74.2382 204° Southwest  Level FlightAware Approximate
08:40AM 40.9333 -74.3333 201° Southwest 112 129 3,500  Level New York TRACON
08:41AM 41.0351 -74.2532 204° Southwest  Level FlightAware Approximate
08:41AM 40.9000 -74.3500 201° Southwest 112 129 3,500  Level New York TRACON
08:42AM 41.0094 -74.2682 204° Southwest  Level FlightAware Approximate
08:42AM 40.8833 -74.3500 180° South 110 127 3,500  Level New York TRACON
08:43AM 40.9837 -74.2832 204° Southwest  Level FlightAware Approximate
08:43AM 40.8500 -74.3667 201° Southwest 111 128 3,500  Level New York TRACON
08:44AM 40.9580 -74.2981 204° Southwest  Level FlightAware Approximate
08:44AM 40.8333 -74.3833 217° Southwest 106 122 3,500  Level New York TRACON
08:45AM 40.8000 -74.4000 201° Southwest 109 125 3,400  Descending New York TRACON
08:46AM 40.7667 -74.4167 201° Southwest 110 127 3,500 60 Climbing New York TRACON
08:47AM 40.7500 -74.4333 217° Southwest 108 124 3,600  Climbing New York TRACON
08:48AM 40.7167 -74.4667 217° Southwest 112 129 3,500 -300 Descending New York TRACON
08:49AM 40.6833 -74.4833 201° Southwest 120 138 3,100 -360 Descending New York TRACON
08:50AM 40.6667 -74.5000 217° Southwest 116 133 2,800 -300 Descending New York TRACON
08:52AM 40.6197 -74.5061 210° Southwest  Level FlightAware Approximate
08:59AM 40.5167 -74.5833 210° Southwest  Level FlightAware Approximate
09:00AM 40.5244 -74.5983 210° Southwest  Level Estimated
09:01AM 40.5244 -74.5983 210° Southwest  Level Estimated
09:02AM 40.5244 -74.5983 210° Southwest  Level Estimated
09:03AM 40.5244 -74.5983 210° Southwest  Level Estimated
09:04AM 40.5244 -74.5983 210° Southwest  Level Estimated
09:05AM 40.5244 -74.5983 210° Southwest  Level Estimated
09:06AM 40.5244 -74.5983 210° Southwest  Level Estimated
09:07AM 40.5244 -74.5983 210° Southwest  Level Estimated
09:08AM 40.5244 -74.5983 210° Southwest  Level Estimated
09:09AM 40.5244 -74.5983 210° Southwest  Level Estimated
09:10AM 40.5244 -74.5983 210° Southwest  Level Estimated
09:11AM 40.5244 -74.5983 210° Southwest  Level Estimated